Time;durP1;ratioP1;P1;durP2;ratioP2;P2;SDS_P1;SDS_P2;PMS_P1;PMS_P2;Temp;Humidity;BMP_temperature;BMP_pressure;BME280_temperature;BME280_humidity;BME280_pressure;Samples;Min_cycle;Max_cycle;Signal;HPM_P1;HPM_P2
2021/03/01 00:00:16;;;;;;;11.60;8.13;;;;;;;8.18;38.65;103017.91;5065927;28;20044;-71
2021/03/01 00:02:44;;;;;;;14.63;8.77;;;;;;;8.12;38.90;103026.38;5069348;28;20036;-70
2021/03/01 00:05:14;;;;;;;12.68;8.95;;;;;;;8.07;39.14;103025.66;5061660;28;20122;-71
2021/03/01 00:07:42;;;;;;;14.15;8.63;;;;;;;8.01;38.86;103023.19;5068261;28;20032;-71
2021/03/01 00:10:11;;;;;;;13.65;8.45;;;;;;;7.94;39.00;103029.84;5065261;28;20041;-71
2021/03/01 00:12:39;;;;;;;11.65;7.45;;;;;;;7.89;39.06;103020.97;5063270;28;20041;-71
2021/03/01 00:15:08;;;;;;;13.68;8.35;;;;;;;7.85;39.02;103022.94;5064576;28;20064;-71
2021/03/01 00:17:36;;;;;;;13.50;8.75;;;;;;;7.78;39.20;103028.69;5058514;28;20040;-71
2021/03/01 00:20:04;;;;;;;13.93;8.50;;;;;;;7.75;39.34;103026.06;5066282;28;20064;-71
2021/03/01 00:22:32;;;;;;;14.25;9.52;;;;;;;7.69;39.44;103027.22;5059696;28;20047;-71
2021/03/01 00:24:59;;;;;;;15.60;9.40;;;;;;;7.64;39.44;103026.53;5064608;28;20062;-71
2021/03/01 00:27:28;;;;;;;14.95;8.77;;;;;;;7.59;39.37;103033.97;5060435;28;21682;-71
2021/03/01 00:29:55;;;;;;;17.85;9.73;;;;;;;7.54;39.82;103035.13;5068568;28;20047;-70
2021/03/01 00:32:22;;;;;;;14.13;8.57;;;;;;;7.51;39.54;103036.13;5063997;28;20036;-71
2021/03/01 00:34:50;;;;;;;15.13;9.60;;;;;;;7.46;39.58;103032.69;5053240;28;20037;-71
2021/03/01 00:37:18;;;;;;;12.45;8.25;;;;;;;7.44;39.67;103032.75;5060613;28;20037;-71
2021/03/01 00:39:46;;;;;;;13.35;9.30;;;;;;;7.38;39.93;103033.00;5053451;28;20700;-71
2021/03/01 00:42:13;;;;;;;15.43;10.02;;;;;;;7.33;39.87;103029.53;5069047;28;20044;-71
2021/03/01 00:44:41;;;;;;;14.00;8.68;;;;;;;7.32;40.10;103032.34;5084264;28;20044;-71
2021/03/01 00:47:08;;;;;;;14.13;9.30;;;;;;;7.27;39.72;103037.06;5067504;28;20037;-71
2021/03/01 00:49:36;;;;;;;15.50;9.50;;;;;;;7.22;39.86;103039.09;5080880;28;20053;-71
2021/03/01 00:52:03;;;;;;;16.60;9.52;;;;;;;7.18;39.96;103043.75;5063811;28;20040;-71
2021/03/01 00:54:31;;;;;;;13.10;8.38;;;;;;;7.16;40.03;103042.03;5065463;28;20483;-71
2021/03/01 00:56:59;;;;;;;13.63;9.07;;;;;;;7.14;40.14;103043.91;5061218;28;20035;-70
2021/03/01 00:59:26;;;;;;;14.23;8.57;;;;;;;7.08;40.00;103037.75;5065560;28;20142;-71
2021/03/01 01:02:05;;;;;;;12.85;8.82;;;;;;;7.06;39.98;103036.94;5059568;28;20032;-71
2021/03/01 01:04:35;;;;;;;14.02;9.32;;;;;;;7.02;40.36;103026.16;5078977;28;20125;-71
2021/03/01 01:07:03;;;;;;;13.30;8.77;;;;;;;7.01;39.92;103029.84;5063915;28;20064;-70
2021/03/01 01:09:30;;;;;;;14.32;10.13;;;;;;;6.98;40.09;103027.25;5063051;28;20028;-71
2021/03/01 01:11:59;;;;;;;13.57;8.73;;;;;;;6.95;40.15;103025.50;5064573;28;20048;-71
2021/03/01 01:14:26;;;;;;;16.17;9.68;;;;;;;6.92;40.19;103019.28;5064250;28;20036;-71
2021/03/01 01:16:54;;;;;;;15.88;9.40;;;;;;;6.91;40.21;103022.97;5077580;28;20044;-71
2021/03/01 01:19:21;;;;;;;14.45;9.57;;;;;;;6.89;40.20;103031.19;5065569;28;20041;-71
2021/03/01 01:21:49;;;;;;;15.20;9.30;;;;;;;6.87;40.44;103022.19;5068573;28;20047;-71
2021/03/01 01:24:16;;;;;;;12.30;8.18;;;;;;;6.88;40.27;103017.63;5067354;28;20565;-71
2021/03/01 01:26:43;;;;;;;13.48;8.45;;;;;;;6.86;40.50;103023.13;5062989;28;20686;-71
2021/03/01 01:29:11;;;;;;;13.88;9.07;;;;;;;6.86;40.42;103014.97;5066396;28;20083;-71
2021/03/01 01:31:38;;;;;;;13.52;8.85;;;;;;;6.84;40.59;103018.66;5078159;28;20098;-71
2021/03/01 01:34:06;;;;;;;14.32;9.38;;;;;;;6.82;39.97;103024.19;5059238;28;20537;-71
2021/03/01 01:36:33;;;;;;;16.25;9.30;;;;;;;6.80;40.43;103026.06;5067955;28;20044;-71
2021/03/01 01:39:01;;;;;;;15.05;9.57;;;;;;;6.78;40.39;103025.25;5042921;28;20480;-71
2021/03/01 01:41:29;;;;;;;13.77;8.73;;;;;;;6.77;40.35;103026.19;5061470;28;20041;-71
2021/03/01 01:43:56;;;;;;;13.15;8.65;;;;;;;6.74;40.47;103026.31;5068970;28;20062;-71
2021/03/01 01:46:24;;;;;;;15.35;10.50;;;;;;;6.72;40.46;103030.91;5066199;28;20125;-71
2021/03/01 01:48:52;;;;;;;16.63;9.38;;;;;;;6.65;40.56;103023.91;5067840;28;20051;-71
2021/03/01 01:51:20;;;;;;;14.75;9.45;;;;;;;6.64;40.55;103022.13;5065686;28;20044;-71
2021/03/01 01:53:47;;;;;;;14.90;9.63;;;;;;;6.60;40.75;103017.72;5066282;28;20628;-71
2021/03/01 01:56:14;;;;;;;14.23;9.18;;;;;;;6.54;40.59;103023.38;5064411;28;20044;-71
2021/03/01 01:58:41;;;;;;;13.45;9.32;;;;;;;6.51;40.39;103020.75;5069511;28;20033;-71
2021/03/01 02:01:09;;;;;;;15.02;9.38;;;;;;;6.46;40.73;103015.50;5066277;28;20036;-71
2021/03/01 02:03:46;;;;;;;16.30;10.05;;;;;;;6.46;41.03;103018.22;5069794;28;20106;-71
2021/03/01 02:06:35;;;;;;;12.50;8.60;;;;;;;6.40;41.58;103021.16;5064066;28;20052;-71
2021/03/01 02:09:25;;;;;;;13.13;8.40;;;;;;;6.35;41.19;103014.97;5067563;28;20048;-71
2021/03/01 02:12:02;;;;;;;14.52;9.15;;;;;;;6.29;41.15;103017.91;5060254;28;20448;-71
2021/03/01 02:14:42;;;;;;;13.05;8.63;;;;;;;6.27;41.64;103014.34;5087377;28;20039;-71
2021/03/01 02:17:09;;;;;;;14.98;9.05;;;;;;;6.19;41.26;103005.56;5085476;28;20044;-71
2021/03/01 02:19:38;;;;;;;14.23;8.80;;;;;;;6.19;41.13;103003.75;5066206;28;20071;-71
2021/03/01 02:22:06;;;;;;;15.20;9.02;;;;;;;6.16;41.08;103006.59;5069914;28;20041;-71
2021/03/01 02:24:40;;;;;;;13.55;8.93;;;;;;;6.13;41.49;103003.97;5067227;28;20043;-71
2021/03/01 02:27:08;;;;;;;13.40;8.65;;;;;;;6.08;41.18;103000.53;5068994;28;20045;-71
2021/03/01 02:29:37;;;;;;;15.35;9.15;;;;;;;6.08;40.92;102997.81;5070704;28;20079;-71
2021/03/01 02:32:07;;;;;;;13.05;8.55;;;;;;;6.07;41.31;102995.13;5059450;28;20053;-71
2021/03/01 02:34:37;;;;;;;13.77;8.32;;;;;;;6.03;41.03;102991.63;5069724;28;20447;-71
2021/03/01 02:37:08;;;;;;;14.25;8.70;;;;;;;6.04;41.48;102987.06;5081958;28;20480;-70
2021/03/01 02:39:41;;;;;;;14.30;9.77;;;;;;;6.00;41.28;102989.03;5063268;28;20115;-71
2021/03/01 02:42:09;;;;;;;16.60;9.35;;;;;;;6.00;41.33;102989.03;5069342;28;20136;-71
2021/03/01 02:44:38;;;;;;;14.15;8.73;;;;;;;6.00;41.22;102980.88;5070783;28;20126;-71
2021/03/01 02:47:06;;;;;;;13.80;9.00;;;;;;;5.99;41.36;102984.53;5069760;28;20048;-71
2021/03/01 02:49:35;;;;;;;12.07;7.10;;;;;;;6.01;41.24;102982.63;5085358;28;20044;-71
2021/03/01 02:52:03;;;;;;;12.82;7.35;;;;;;;6.01;41.25;102982.63;5084905;28;20037;-71
2021/03/01 02:54:33;;;;;;;11.52;7.15;;;;;;;6.04;41.39;102982.53;5087249;28;20447;-71
2021/03/01 02:57:01;;;;;;;11.63;7.35;;;;;;;6.06;41.24;102987.91;5075186;28;20052;-71
2021/03/01 02:59:29;;;;;;;12.70;7.80;;;;;;;6.08;41.47;102976.06;5064955;28;20033;-71
2021/03/01 03:01:58;;;;;;;12.88;7.93;;;;;;;6.12;41.58;102974.13;5071375;28;20045;-70
2021/03/01 03:04:27;;;;;;;11.88;7.30;;;;;;;6.14;41.33;102981.28;5068296;28;20048;-71
2021/03/01 03:06:56;;;;;;;15.38;8.77;;;;;;;6.18;41.12;102974.78;5084692;28;20435;-71
2021/03/01 03:09:25;;;;;;;13.38;8.32;;;;;;;6.21;41.29;102979.25;5069522;28;20044;-71
2021/03/01 03:11:55;;;;;;;13.60;8.60;;;;;;;6.24;41.26;102980.03;5065371;28;20041;-71
2021/03/01 03:14:25;;;;;;;12.57;7.55;;;;;;;6.25;41.41;102967.34;5068337;28;20044;-71
2021/03/01 03:16:54;;;;;;;13.57;8.13;;;;;;;6.27;40.87;102962.72;5066828;28;20040;-71
2021/03/01 03:19:22;;;;;;;14.20;8.30;;;;;;;6.27;41.10;102968.16;5060853;28;20046;-71
2021/03/01 03:21:50;;;;;;;13.70;8.35;;;;;;;6.28;40.94;102964.50;5069578;28;20044;-71
2021/03/01 03:24:17;;;;;;;14.48;9.25;;;;;;;6.28;40.73;102967.22;5071024;28;20056;-71
2021/03/01 03:26:46;;;;;;;13.82;8.05;;;;;;;6.28;40.99;102970.81;5068579;28;20132;-71
2021/03/01 03:29:14;;;;;;;14.43;8.88;;;;;;;6.28;40.85;102964.50;5061363;28;20076;-71
2021/03/01 03:31:41;;;;;;;13.35;7.95;;;;;;;6.27;40.64;102960.88;5069749;28;20372;-71
2021/03/01 03:34:09;;;;;;;15.07;8.88;;;;;;;6.24;41.03;102960.13;5066604;28;20036;-71
2021/03/01 03:36:43;;;;;;;14.52;8.70;;;;;;;6.25;40.88;102964.63;5066537;28;20480;-71
2021/03/01 03:39:13;;;;;;;13.70;8.50;;;;;;;6.22;40.65;102960.16;5065828;28;20080;-71
2021/03/01 03:41:42;;;;;;;12.50;7.63;;;;;;;6.20;40.78;102969.31;5060617;28;20463;-71
2021/03/01 03:44:11;;;;;;;13.32;8.13;;;;;;;6.18;40.68;102972.06;5070274;28;20123;-71
2021/03/01 03:46:42;;;;;;;12.23;7.38;;;;;;;6.18;40.88;102965.75;5069882;28;20141;-71
2021/03/01 03:49:11;;;;;;;11.32;7.57;;;;;;;6.17;41.08;102967.56;5068461;28;20048;-71
2021/03/01 03:51:44;;;;;;;11.25;7.32;;;;;;;6.17;40.96;102973.00;5067542;28;20090;-71
2021/03/01 03:54:16;;;;;;;12.43;7.25;;;;;;;6.17;41.12;102974.88;5078500;28;20056;-71
2021/03/01 03:56:50;;;;;;;12.10;7.47;;;;;;;6.18;41.09;102976.63;5068341;28;20540;-71
2021/03/01 03:59:20;;;;;;;11.30;6.47;;;;;;;6.18;40.88;102971.19;5067633;28;20125;-71
2021/03/01 04:01:51;;;;;;;11.93;6.60;;;;;;;6.19;40.87;102973.84;5066974;28;20032;-71
2021/03/01 04:04:22;;;;;;;12.80;6.93;;;;;;;6.18;40.98;102974.78;5066497;28;20067;-71
2021/03/01 04:06:50;;;;;;;12.30;7.32;;;;;;;6.21;40.85;102976.53;5068042;28;20039;-71
2021/03/01 04:09:21;;;;;;;13.23;8.05;;;;;;;6.22;40.95;102976.47;5061903;28;20048;-71
2021/03/01 04:11:50;;;;;;;12.05;7.15;;;;;;;6.22;41.00;102981.91;5064874;28;20068;-71
2021/03/01 04:14:22;;;;;;;12.85;7.28;;;;;;;6.23;40.95;102986.41;5056095;28;20048;-71
2021/03/01 04:16:57;;;;;;;12.73;7.25;;;;;;;6.24;40.96;102980.03;5063530;28;20059;-71
2021/03/01 04:19:28;;;;;;;12.15;7.57;;;;;;;6.20;40.80;102975.63;5068916;28;20630;-71
2021/03/01 04:21:57;;;;;;;12.20;7.38;;;;;;;6.23;40.70;102975.53;5067450;28;20033;-71
2021/03/01 04:24:28;;;;;;;12.02;7.43;;;;;;;6.22;40.73;102967.44;5061791;28;20074;-71
2021/03/01 04:26:57;;;;;;;11.80;6.90;;;;;;;6.21;40.91;102973.81;5062179;28;20052;-71
2021/03/01 04:29:26;;;;;;;11.63;7.03;;;;;;;6.22;40.87;102968.31;5067821;28;20035;-71
2021/03/01 04:31:58;;;;;;;12.13;6.90;;;;;;;6.22;40.56;102968.31;5083468;28;20551;-71
2021/03/01 04:34:27;;;;;;;11.30;7.22;;;;;;;6.23;40.69;102974.66;5066407;28;20033;-71
2021/03/01 04:36:55;;;;;;;11.25;6.70;;;;;;;6.22;40.69;102965.59;5068688;28;20412;-71
2021/03/01 04:39:24;;;;;;;12.77;7.45;;;;;;;6.23;40.71;102972.81;5060440;28;20047;-71
2021/03/01 04:41:52;;;;;;;12.80;7.28;;;;;;;6.23;40.73;102964.66;5060420;28;20076;-71
2021/03/01 04:44:21;;;;;;;13.85;8.18;;;;;;;6.23;40.90;102972.81;5067611;28;20601;-71
2021/03/01 04:46:53;;;;;;;12.63;7.38;;;;;;;6.25;40.65;102964.63;5068989;28;20032;-71
2021/03/01 04:49:22;;;;;;;12.07;7.07;;;;;;;6.21;40.77;102966.53;5067858;28;20515;-71
2021/03/01 04:51:51;;;;;;;12.48;7.40;;;;;;;6.19;40.45;102954.81;5068088;28;20115;-71
2021/03/01 04:54:21;;;;;;;12.18;7.50;;;;;;;6.18;40.89;102963.03;5065503;28;20062;-71
2021/03/01 04:56:50;;;;;;;12.57;6.80;;;;;;;6.16;40.20;102949.53;5066899;28;20047;-71
2021/03/01 04:59:19;;;;;;;11.07;6.88;;;;;;;6.17;40.61;102961.28;5065723;28;20032;-71
2021/03/01 05:01:48;;;;;;;12.43;6.93;;;;;;;6.17;40.80;102961.28;5081284;28;20033;-71
2021/03/01 05:04:16;;;;;;;11.18;6.32;;;;;;;6.16;40.85;102959.50;5065470;28;20455;-71
2021/03/01 05:06:44;;;;;;;11.40;6.93;;;;;;;6.15;40.62;102958.59;5063314;28;20058;-71
2021/03/01 05:09:14;;;;;;;10.27;6.45;;;;;;;6.16;40.60;102963.09;5065006;28;20495;-71
2021/03/01 05:11:41;;;;;;;12.07;6.72;;;;;;;6.16;40.72;102963.09;5063787;28;20059;-71
2021/03/01 05:14:08;;;;;;;11.13;6.50;;;;;;;6.17;40.46;102969.44;5069212;28;20504;-71
2021/03/01 05:16:36;;;;;;;10.30;6.63;;;;;;;6.17;40.81;102962.13;5062823;28;20605;-71
2021/03/01 05:19:04;;;;;;;13.45;7.38;;;;;;;6.18;40.64;102955.75;5064025;28;20048;-71
2021/03/01 05:21:31;;;;;;;12.55;6.65;;;;;;;6.18;40.80;102968.47;5066516;28;20059;-71
2021/03/01 05:23:59;;;;;;;11.27;7.13;;;;;;;6.19;40.63;102957.53;5083687;28;20041;-71
2021/03/01 05:26:28;;;;;;;11.85;7.00;;;;;;;6.19;40.73;102968.41;5067034;28;20102;-71
2021/03/01 05:28:56;;;;;;;10.80;6.78;;;;;;;6.20;40.77;102967.47;5080890;28;20045;-71
2021/03/01 05:31:24;;;;;;;11.00;7.00;;;;;;;6.19;40.78;102967.53;5065909;28;20046;-71
2021/03/01 05:33:52;;;;;;;11.05;6.50;;;;;;;6.18;40.74;102971.19;5066296;28;20047;-71
2021/03/01 05:36:20;;;;;;;10.85;6.60;;;;;;;6.16;40.47;102968.53;5069005;28;20052;-71
2021/03/01 05:38:47;;;;;;;10.52;6.35;;;;;;;6.17;40.75;102975.72;5069474;28;20633;-71
2021/03/01 05:41:18;;;;;;;13.20;7.00;;;;;;;6.18;40.95;102972.06;5057789;28;20055;-71
2021/03/01 05:43:48;;;;;;;11.05;6.72;;;;;;;6.16;40.61;102971.25;5058215;28;20521;-72
2021/03/01 05:46:15;;;;;;;10.70;6.88;;;;;;;6.13;40.69;102971.34;5046099;28;20048;-73
2021/03/01 05:48:46;;;;;;;12.55;6.53;;;;;;;6.15;40.59;102971.31;5070590;28;20040;-72
2021/03/01 05:51:15;;;;;;;11.68;6.45;;;;;;;6.14;40.63;102966.81;5071547;28;20044;-72
2021/03/01 05:53:44;;;;;;;9.77;6.03;;;;;;;6.14;40.71;102974.97;5071073;28;20475;-72
2021/03/01 05:56:13;;;;;;;11.75;7.10;;;;;;;6.14;40.59;102975.84;5067798;28;20043;-72
2021/03/01 05:58:42;;;;;;;11.35;6.13;;;;;;;6.14;40.61;102974.97;5068504;28;20032;-72
2021/03/01 06:01:10;;;;;;;11.38;6.53;;;;;;;6.12;40.67;102985.88;5067754;28;20040;-72
2021/03/01 06:03:38;;;;;;;11.25;6.88;;;;;;;6.13;40.83;102987.66;5068997;28;20102;-71
2021/03/01 06:06:06;;;;;;;11.93;6.40;;;;;;;6.13;40.69;102990.38;5068608;28;20083;-71
2021/03/01 06:08:34;;;;;;;10.00;6.13;;;;;;;6.12;40.57;102987.69;5071153;28;20039;-72
2021/03/01 06:11:04;;;;;;;12.65;7.28;;;;;;;6.14;40.70;102994.88;5068076;28;20040;-72
2021/03/01 06:13:32;;;;;;;11.57;6.25;;;;;;;6.12;40.85;102996.75;5086000;28;20414;-71
2021/03/01 06:16:02;;;;;;;10.52;6.38;;;;;;;6.14;40.50;103004.84;5066275;28;20485;-72
2021/03/01 06:18:31;;;;;;;12.15;6.75;;;;;;;6.13;40.82;102997.63;5066328;28;20056;-72
2021/03/01 06:21:12;;;;;;;10.07;6.45;;;;;;;6.15;40.73;103002.09;5067142;28;20040;-72
2021/03/01 06:23:41;;;;;;;11.30;5.93;;;;;;;6.12;40.49;103002.19;5071532;28;20591;-72
2021/03/01 06:26:23;;;;;;;12.35;6.72;;;;;;;6.15;40.81;103010.25;5069132;28;20048;-72
2021/03/01 06:28:52;;;;;;;10.60;6.30;;;;;;;6.12;40.55;103004.00;5067515;28;20036;-72
2021/03/01 06:31:35;;;;;;;11.13;6.65;;;;;;;6.14;40.84;103005.75;5069791;28;20040;-72
2021/03/01 06:34:25;;;;;;;10.77;6.35;;;;;;;6.12;40.58;103009.44;5064616;28;20069;-72
2021/03/01 06:37:00;;;;;;;12.15;6.78;;;;;;;6.13;40.49;103003.06;5064511;28;20496;-72
2021/03/01 06:39:32;;;;;;;10.70;6.00;;;;;;;6.12;40.62;103006.72;5068751;28;20540;-72
2021/03/01 06:42:20;;;;;;;11.80;6.60;;;;;;;6.11;40.50;103021.25;5066377;28;20041;-72
2021/03/01 06:45:13;;;;;;;10.65;6.20;;;;;;;6.10;40.58;103019.47;5078131;28;20129;-71
2021/03/01 06:47:59;;;;;;;12.00;6.72;;;;;;;6.10;41.05;103019.47;5068477;28;20037;-72
2021/03/01 06:50:33;;;;;;;11.18;6.57;;;;;;;6.09;40.78;103020.44;5062761;28;20080;-71
2021/03/01 06:53:04;;;;;;;11.32;6.35;;;;;;;6.09;40.64;103015.84;5069308;28;20043;-71
2021/03/01 06:55:33;;;;;;;11.95;6.45;;;;;;;6.05;40.89;103014.19;5066943;28;20207;-71
2021/03/01 06:58:16;;;;;;;11.60;6.35;;;;;;;6.07;40.89;103017.75;5069652;28;20051;-72
2021/03/01 07:00:43;;;;;;;11.90;6.68;;;;;;;6.02;41.04;103017.00;5064798;28;20047;-72
2021/03/01 07:03:22;;;;;;;12.35;7.20;;;;;;;6.07;41.24;103017.75;5067584;28;20049;-72
2021/03/01 07:05:51;;;;;;;11.00;6.47;;;;;;;6.06;40.97;103023.25;5066650;28;20067;-72
2021/03/01 07:08:44;;;;;;;10.23;6.15;;;;;;;6.09;41.53;103026.72;5071592;28;20033;-71
2021/03/01 07:11:24;;;;;;;11.02;6.53;;;;;;;6.13;41.77;103031.13;5059376;28;20048;-72
2021/03/01 07:13:54;;;;;;;11.82;6.65;;;;;;;6.15;41.45;103022.94;5060454;28;20045;-72
2021/03/01 07:16:21;;;;;;;10.90;6.60;;;;;;;6.20;41.66;103026.38;5060990;28;20056;-71
2021/03/01 07:18:51;;;;;;;10.20;6.00;;;;;;;6.25;41.77;103030.69;5080087;28;20036;-70
2021/03/01 07:21:20;;;;;;;10.90;6.15;;;;;;;6.29;41.68;103029.69;5059757;28;20431;-71
2021/03/01 07:23:48;;;;;;;11.00;6.07;;;;;;;6.35;41.86;103023.13;5061795;28;20047;-71
2021/03/01 07:26:17;;;;;;;10.93;6.20;;;;;;;6.44;42.11;103024.66;5068239;28;20176;-72
2021/03/01 07:28:50;;;;;;;11.93;7.22;;;;;;;6.51;42.07;103026.19;5062859;28;20047;-71
2021/03/01 07:31:18;;;;;;;;;;;;;;;6.34;42.79;103021.34;5062626;28;20037;-71
2021/03/01 07:33:47;;;;;;;11.10;7.18;;;;;;;6.65;42.22;103022.09;5064786;28;19920;-71
2021/03/01 07:36:16;;;;;;;10.95;6.63;;;;;;;6.80;41.95;103019.75;5068537;28;20037;-73
2021/03/01 07:38:44;;;;;;;12.23;6.72;;;;;;;6.89;41.77;103025.75;5061296;28;20037;-72
2021/03/01 07:41:12;;;;;;;11.25;6.82;;;;;;;6.99;41.99;103029.91;5062104;28;20047;-71
2021/03/01 07:43:42;;;;;;;11.65;6.93;;;;;;;7.11;41.77;103026.75;5069197;28;20045;-71
2021/03/01 07:46:10;;;;;;;8.88;5.78;;;;;;;7.20;41.91;103022.78;5084717;28;20052;-71
2021/03/01 07:48:40;;;;;;;12.15;7.45;;;;;;;7.29;41.78;103024.28;5064955;28;20492;-70
2021/03/01 07:51:09;;;;;;;10.68;6.88;;;;;;;7.36;41.72;103024.00;5064849;28;20146;-71
2021/03/01 07:53:49;;;;;;;12.63;7.20;;;;;;;7.46;41.44;103021.81;5062648;28;20040;-72
2021/03/01 07:56:48;;;;;;;11.27;6.57;;;;;;;7.47;41.53;103024.47;5067330;28;20132;-72
2021/03/01 07:59:23;;;;;;;11.20;6.75;;;;;;;7.57;40.95;103026.84;5067375;28;20040;-70
2021/03/01 08:02:11;;;;;;;10.85;6.70;;;;;;;7.61;40.94;103020.31;5062219;28;20090;-70
2021/03/01 08:04:39;;;;;;;11.43;6.80;;;;;;;7.59;40.79;103030.38;5068041;28;20041;-75
2021/03/01 08:07:07;;;;;;;8.77;6.15;;;;;;;7.61;40.82;103023.03;5067710;28;20036;-72
2021/03/01 08:09:50;;;;;;;11.95;7.05;;;;;;;7.63;40.68;103023.88;5067961;28;20060;-73
2021/03/01 08:12:54;;;;;;;9.57;5.90;;;;;;;7.59;40.91;103028.53;5065508;28;20553;-72
2021/03/01 08:15:27;;;;;;;10.00;6.63;;;;;;;7.61;40.50;103023.03;5066003;28;20430;-73
2021/03/01 08:17:55;;;;;;;9.93;5.97;;;;;;;7.56;40.44;103020.50;5061857;28;20841;-72
2021/03/01 08:20:35;;;;;;;12.20;7.88;;;;;;;7.59;40.49;103022.19;5065956;28;20037;-73
2021/03/01 08:23:19;;;;;;;12.55;7.47;;;;;;;7.57;40.71;103024.13;5057324;28;20123;-72
2021/03/01 08:25:57;;;;;;;11.57;6.72;;;;;;;7.55;40.79;103018.72;5058607;28;20094;-71
2021/03/01 08:28:53;;;;;;;10.07;6.10;;;;;;;7.53;40.73;103017.88;5060502;28;20076;-72
2021/03/01 08:31:25;;;;;;;10.88;6.50;;;;;;;7.50;40.82;103018.00;5062539;28;20253;-71
2021/03/01 08:33:52;;;;;;;11.13;6.93;;;;;;;7.48;40.65;103015.34;5066908;28;20036;-72
2021/03/01 08:36:26;;;;;;;10.27;5.82;;;;;;;7.48;40.79;103014.47;5067749;28;20492;-72
2021/03/01 08:38:54;;;;;;;9.88;5.90;;;;;;;7.47;40.69;103012.69;5079247;28;20170;-71
2021/03/01 08:41:43;;;;;;;11.73;6.32;;;;;;;7.44;41.17;103013.69;5061936;28;20071;-72
2021/03/01 08:44:21;;;;;;;12.27;6.88;;;;;;;7.45;41.41;103017.28;5063314;28;20041;-73
2021/03/01 08:46:50;;;;;;;10.15;5.93;;;;;;;7.39;40.94;103010.28;5066148;28;20500;-73
2021/03/01 08:49:24;;;;;;;13.10;7.97;;;;;;;7.41;41.11;103012.91;5067924;28;20080;-72
2021/03/01 08:51:55;;;;;;;12.52;7.78;;;;;;;7.39;41.19;103018.44;5065563;28;20074;-73
2021/03/01 08:54:30;;;;;;;13.27;7.50;;;;;;;7.41;41.74;103016.50;5064858;28;21039;-72
2021/03/01 08:57:07;;;;;;;13.73;7.55;;;;;;;7.42;41.59;103012.84;5063436;28;20039;-73
2021/03/01 08:59:34;;;;;;;13.70;7.57;;;;;;;7.41;41.33;103012.91;5077931;28;20037;-72
2021/03/01 09:02:02;;;;;;;14.35;8.20;;;;;;;7.44;41.35;103016.41;5063450;28;20558;-71
2021/03/01 09:04:30;;;;;;;15.80;9.18;;;;;;;7.46;41.55;103019.09;5060936;28;20035;-73
2021/03/01 09:07:16;;;;;;;16.33;9.05;;;;;;;7.50;41.91;103024.31;5065337;28;20044;-72
2021/03/01 09:09:47;;;;;;;13.48;9.23;;;;;;;7.53;41.66;103017.88;5075766;28;20272;-72
2021/03/01 09:12:19;;;;;;;14.82;8.23;;;;;;;7.57;41.72;103015.94;5082103;28;20075;-73
2021/03/01 09:14:47;;;;;;;12.25;7.25;;;;;;;7.56;41.64;103016.88;5067195;28;20556;-71
2021/03/01 09:17:16;;;;;;;15.25;8.52;;;;;;;7.59;41.68;103011.28;5061894;28;20124;-70
2021/03/01 09:19:54;;;;;;;12.05;7.45;;;;;;;7.65;42.01;103014.69;5064114;28;20033;-70
2021/03/01 09:22:21;;;;;;;11.40;6.80;;;;;;;7.66;41.75;103013.72;5068301;28;20527;-70
2021/03/01 09:24:49;;;;;;;11.35;6.25;;;;;;;7.70;41.76;103007.22;5064688;28;20937;-71
2021/03/01 09:27:31;;;;;;;10.57;6.68;;;;;;;7.77;42.41;103014.19;5063478;28;20056;-71
2021/03/01 09:30:01;;;;;;;10.85;6.65;;;;;;;7.78;41.93;102999.63;5064518;28;20067;-72
2021/03/01 09:32:29;;;;;;;11.60;7.38;;;;;;;7.83;41.93;103005.75;5054471;28;20029;-70
2021/03/01 09:34:56;;;;;;;10.68;6.82;;;;;;;7.90;41.68;103002.78;5063850;28;20033;-70
2021/03/01 09:37:24;;;;;;;12.55;7.43;;;;;;;7.93;42.01;102999.94;5065018;28;20068;-72
2021/03/01 09:39:51;;;;;;;10.25;6.82;;;;;;;7.98;42.13;102998.81;5067674;28;20488;-71
2021/03/01 09:42:19;;;;;;;9.57;6.13;;;;;;;8.03;41.89;102994.03;5066657;28;20040;-72
2021/03/01 09:44:47;;;;;;;8.45;5.45;;;;;;;8.10;42.30;102995.56;5066986;28;20044;-72
2021/03/01 09:47:14;;;;;;;10.38;5.93;;;;;;;8.15;42.09;102995.34;5066395;28;20079;-72
2021/03/01 09:49:44;;;;;;;9.30;6.00;;;;;;;8.19;42.29;102992.44;5057982;28;20067;-72
2021/03/01 09:52:12;;;;;;;9.35;5.43;;;;;;;8.28;42.21;103001.19;5062678;28;20124;-72
2021/03/01 09:54:39;;;;;;;9.68;5.88;;;;;;;8.34;41.87;103001.78;5067901;28;20478;-71
2021/03/01 09:57:09;;;;;;;8.20;5.38;;;;;;;8.42;42.14;102994.16;5060993;28;20047;-72
2021/03/01 09:59:37;;;;;;;9.27;5.50;;;;;;;8.48;42.37;102987.59;5063616;28;20502;-69
2021/03/01 10:02:11;;;;;;;8.57;5.65;;;;;;;8.57;42.13;102987.19;5063394;28;20127;-69
2021/03/01 10:04:40;;;;;;;8.63;5.13;;;;;;;8.63;42.22;102981.47;5061417;28;20123;-68
2021/03/01 10:07:17;;;;;;;9.68;5.43;;;;;;;8.74;42.16;102987.31;5061962;28;20044;-67
2021/03/01 10:09:45;;;;;;;9.13;5.57;;;;;;;8.82;42.03;102982.41;5060825;28;20028;-68
2021/03/01 10:12:13;;;;;;;9.20;5.40;;;;;;;8.91;41.97;102979.25;5061841;28;20037;-67
2021/03/01 10:14:41;;;;;;;9.52;6.05;;;;;;;8.96;41.94;102971.75;5065327;28;20191;-67
2021/03/01 10:17:17;;;;;;;8.00;5.38;;;;;;;9.09;41.56;102971.19;5066383;28;20045;-68
2021/03/01 10:19:45;;;;;;;7.32;4.95;;;;;;;9.14;41.45;102963.66;5057806;28;20036;-68
2021/03/01 10:22:13;;;;;;;8.93;5.55;;;;;;;9.22;41.39;102967.78;5062632;28;20041;-67
2021/03/01 10:24:43;;;;;;;9.13;5.30;;;;;;;9.32;41.41;102965.50;5062377;28;20120;-67
2021/03/01 10:27:12;;;;;;;8.98;5.28;;;;;;;9.40;41.21;102971.50;5060530;28;20075;-67
2021/03/01 10:29:40;;;;;;;8.05;5.35;;;;;;;9.48;41.23;102969.28;5065118;28;20040;-66
2021/03/01 10:32:19;;;;;;;8.52;5.15;;;;;;;9.60;40.98;102965.06;5082836;28;20094;-66
2021/03/01 10:34:47;;;;;;;8.57;5.63;;;;;;;9.65;41.11;102963.00;5062292;28;20037;-66
2021/03/01 10:37:17;;;;;;;7.28;4.75;;;;;;;9.75;40.92;102967.09;5071092;28;20051;-66
2021/03/01 10:39:47;;;;;;;7.68;4.75;;;;;;;9.85;40.87;102967.53;5064667;28;20045;-68
2021/03/01 10:42:18;;;;;;;;;;;;;;;9.64;41.27;102958.47;5070507;28;20040;-67
2021/03/01 10:44:47;;;;;;;7.93;5.05;;;;;;;9.96;40.82;102955.06;5068479;28;19921;-68
2021/03/01 10:47:16;;;;;;;7.32;4.80;;;;;;;10.09;40.57;102952.59;5064898;28;20076;-67
2021/03/01 10:49:47;;;;;;;8.05;4.95;;;;;;;10.21;40.54;102951.06;5076608;28;20185;-67
2021/03/01 10:52:16;;;;;;;6.95;4.47;;;;;;;10.30;40.79;102954.22;5063548;28;20119;-69
2021/03/01 10:54:48;;;;;;;7.50;4.65;;;;;;;10.38;40.69;102951.97;5069227;28;20059;-69
2021/03/01 10:57:15;;;;;;;6.45;4.32;;;;;;;10.50;40.51;102950.44;5080072;28;20098;-68
2021/03/01 10:59:44;;;;;;;7.72;5.05;;;;;;;10.60;40.19;102959.06;5066751;28;20670;-68
2021/03/01 11:02:11;;;;;;;6.60;4.28;;;;;;;10.69;39.86;102954.00;5064459;28;20047;-69
2021/03/01 11:04:43;;;;;;;7.15;4.20;;;;;;;10.77;40.04;102956.31;5066451;28;20040;-69
2021/03/01 11:07:12;;;;;;;8.63;4.90;;;;;;;10.89;39.38;102955.66;5069118;28;20048;-67
2021/03/01 11:09:41;;;;;;;7.32;4.85;;;;;;;10.97;39.28;102957.97;5063141;28;20081;-67
2021/03/01 11:12:11;;;;;;;8.07;4.80;;;;;;;11.05;39.20;102959.31;5067478;28;20036;-68
2021/03/01 11:14:39;;;;;;;8.38;5.35;;;;;;;11.11;39.21;102953.50;5068639;28;20040;-67
2021/03/01 11:17:11;;;;;;;7.00;4.72;;;;;;;11.22;39.37;102948.31;5085622;28;20299;-68
2021/03/01 11:19:40;;;;;;;8.25;4.70;;;;;;;11.31;39.19;102944.19;5063601;28;20044;-68
2021/03/01 11:22:07;;;;;;;6.93;4.75;;;;;;;11.41;38.95;102939.94;5067639;28;20048;-68
2021/03/01 11:24:35;;;;;;;8.18;5.30;;;;;;;11.48;38.68;102927.66;5067857;28;20090;-68
2021/03/01 11:27:04;;;;;;;8.48;5.53;;;;;;;11.57;38.63;102918.91;5064163;28;20047;-68
2021/03/01 11:29:31;;;;;;;6.38;4.43;;;;;;;11.65;38.62;102924.84;5065371;28;21833;-68
2021/03/01 11:31:59;;;;;;;6.72;4.70;;;;;;;11.75;38.93;102914.22;5063034;28;20149;-68
2021/03/01 11:34:27;;;;;;;6.35;4.50;;;;;;;11.83;38.70;102920.13;5064804;28;20033;-68
2021/03/01 11:36:54;;;;;;;6.25;4.20;;;;;;;11.92;38.55;102916.88;5068415;28;20032;-68
2021/03/01 11:39:21;;;;;;;8.02;5.03;;;;;;;12.02;38.32;102911.69;5065441;28;20040;-68
2021/03/01 11:41:50;;;;;;;6.97;4.75;;;;;;;12.09;37.89;102914.97;5065225;28;20041;-68